Time;durP1;ratioP1;P1;durP2;ratioP2;P2;SDS_P1;SDS_P2;PMS_P1;PMS_P2;Temp;Humidity;BMP_temperature;BMP_pressure;BME280_temperature;BME280_humidity;BME280_pressure;Samples;Min_cycle;Max_cycle;Signal;HPM_P1;HPM_P2
2022/06/14 00:01:02;;;;;;;0.00;0.00;;;12.10;99.90;;;;;;5952819;24;20441;-93
2022/06/14 00:03:46;;;;;;;0.00;0.00;;;12.10;99.90;;;;;;5952277;24;20510;-92
2022/06/14 00:06:29;;;;;;;0.00;0.00;;;12.10;99.90;;;;;;5953401;24;20409;-92
2022/06/14 00:09:13;;;;;;;0.00;0.00;;;12.10;99.90;;;;;;5955447;24;20457;-92
2022/06/14 00:11:56;;;;;;;0.00;0.00;;;12.10;99.90;;;;;;5954297;24;20425;-93
2022/06/14 00:14:36;;;;;;;0.00;0.00;;;12.00;99.90;;;;;;5966108;24;20451;-91
2022/06/14 00:20:34;;;;;;;0.00;0.00;;;11.80;99.90;;;;;;5872844;24;20786;-92
2022/06/14 00:23:23;;;;;;;0.00;0.00;;;11.80;99.90;;;;;;5950488;24;20460;-92
2022/06/14 00:26:16;;;;;;;0.00;0.00;;;11.90;99.90;;;;;;5928463;24;20405;-89
2022/06/14 00:28:52;;;;;;;0.00;0.00;;;11.90;99.90;;;;;;5951455;24;20423;-91
2022/06/14 00:31:27;;;;;;;0.00;0.00;;;11.90;99.90;;;;;;5950294;24;20413;-91
2022/06/14 00:34:04;;;;;;;0.00;0.00;;;11.80;99.90;;;;;;5950107;24;20801;-90
2022/06/14 00:36:52;;;;;;;0.00;0.00;;;11.80;99.90;;;;;;6006102;23;20407;-92
2022/06/14 00:39:24;;;;;;;0.00;0.00;;;11.80;99.90;;;;;;6005192;23;20497;-91
2022/06/14 00:41:56;;;;;;;0.00;0.00;;;11.90;99.90;;;;;;6006425;23;21034;-91
2022/06/14 00:44:26;;;;;;;0.00;0.00;;;11.90;99.90;;;;;;6020383;23;20468;-92
2022/06/14 00:47:00;;;;;;;0.00;0.00;;;11.90;99.90;;;;;;6070414;23;20401;-93
2022/06/14 00:49:38;;;;;;;0.00;0.00;;;11.80;99.90;;;;;;6085127;23;20440;-92
2022/06/14 00:52:17;;;;;;;0.00;0.00;;;11.80;99.90;;;;;;6067391;23;21047;-92
2022/06/14 00:54:55;;;;;;;0.00;0.00;;;11.90;99.90;;;;;;6068170;23;20536;-92
2022/06/14 00:57:27;;;;;;;0.00;0.00;;;11.90;99.90;;;;;;6067512;23;20443;-91
2022/06/14 01:00:02;;;;;;;0.00;0.00;;;12.00;99.90;;;;;;6065930;23;20934;-92
2022/06/14 01:02:44;;;;;;;0.00;0.00;;;12.00;99.90;;;;;;6066897;23;20402;-91
2022/06/14 01:05:23;;;;;;;0.00;0.00;;;12.10;99.90;;;;;;6066876;23;20583;-90
2022/06/14 01:08:01;;;;;;;0.00;0.00;;;12.10;99.90;;;;;;6066963;23;20914;-90
2022/06/14 01:10:49;;;;;;;0.00;0.00;;;12.20;99.90;;;;;;6066361;23;21153;-90
2022/06/14 01:13:29;;;;;;;0.00;0.00;;;12.20;99.90;;;;;;6066468;23;20436;-90
2022/06/14 01:16:17;;;;;;;0.00;0.00;;;12.30;99.90;;;;;;6067294;23;20869;-91
2022/06/14 01:18:54;;;;;;;0.00;0.00;;;12.40;99.90;;;;;;6065937;23;20424;-90
2022/06/14 01:21:38;;;;;;;0.00;0.00;;;12.40;99.90;;;;;;6065848;23;20441;-91
2022/06/14 01:24:26;;;;;;;0.00;0.00;;;12.40;99.90;;;;;;6065101;23;20950;-90
2022/06/14 01:27:05;;;;;;;0.00;0.00;;;12.40;99.90;;;;;;6064857;23;20417;-91
2022/06/14 01:35:41;;;;;;;0.00;0.00;;;12.60;99.90;;;;;;5937786;24;20481;-90
2022/06/14 01:38:16;;;;;;;0.00;0.00;;;12.60;99.90;;;;;;5950923;24;20427;-91
2022/06/14 01:41:07;;;;;;;0.00;0.00;;;12.50;99.90;;;;;;5998838;23;20446;-91
2022/06/14 01:44:05;;;;;;;0.00;0.00;;;12.50;99.90;;;;;;6035683;23;20444;-91
2022/06/14 01:47:07;;;;;;;0.00;0.00;;;12.40;99.90;;;;;;6042741;23;20518;-90
2022/06/14 01:52:39;;;;;;;0.00;0.00;;;12.30;99.90;;;;;;6039159;23;21004;-89
2022/06/14 01:55:21;;;;;;;0.00;0.00;;;12.30;99.90;;;;;;6037327;23;20466;-91
2022/06/14 01:57:59;;;;;;;0.00;0.00;;;12.30;99.90;;;;;;6062013;23;20434;-89
2022/06/14 02:00:36;;;;;;;0.00;0.00;;;12.40;99.90;;;;;;6065935;23;20441;-90
2022/06/14 02:06:31;;;;;;;0.00;0.00;;;12.60;99.90;;;;;;6066577;23;20469;-90
2022/06/14 02:09:11;;;;;;;0.00;0.00;;;12.60;99.90;;;;;;6066654;23;20824;-90
2022/06/14 02:11:47;;;;;;;0.00;0.00;;;12.60;99.90;;;;;;6066620;23;20401;-90
2022/06/14 02:14:31;;;;;;;0.00;0.00;;;12.60;99.90;;;;;;6067006;23;20964;-90
2022/06/14 02:22:59;;;;;;;0.00;0.00;;;12.60;99.90;;;;;;6060278;23;20486;-90
2022/06/14 02:25:44;;;;;;;0.00;0.00;;;12.60;99.90;;;;;;6067225;23;20424;-91
2022/06/14 02:28:48;;;;;;;0.00;0.00;;;12.60;99.90;;;;;;6066259;23;20641;-90
2022/06/14 02:31:54;;;;;;;0.00;0.00;;;12.60;99.90;;;;;;6064859;23;20409;-91
2022/06/14 02:35:14;;;;;;;0.00;0.00;;;12.60;99.90;;;;;;5916122;23;20523;-90
2022/06/14 02:45:49;;;;;;;0.00;0.00;;;12.40;99.90;;;;;;6068336;23;20974;-90
2022/06/14 02:48:43;;;;;;;0.00;0.00;;;12.30;99.90;;;;;;6064655;23;20409;-91
2022/06/14 02:51:40;;;;;;;0.00;0.00;;;12.30;99.90;;;;;;6066951;23;20409;-89
2022/06/14 02:54:30;;;;;;;0.00;0.00;;;12.30;99.90;;;;;;6072837;23;20433;-92
2022/06/14 02:57:12;;;;;;;0.00;0.00;;;12.30;99.90;;;;;;6069726;23;20417;-92
2022/06/14 02:59:47;;;;;;;0.00;0.00;;;12.30;99.90;;;;;;6067675;23;20428;-91
2022/06/14 03:02:44;;;;;;;0.00;0.00;;;12.30;99.90;;;;;;6068043;23;20528;-90
2022/06/14 03:05:44;;;;;;;0.00;0.00;;;12.30;99.90;;;;;;6068801;23;20666;-92
2022/06/14 03:12:11;;;;;;;0.00;0.00;;;12.30;99.90;;;;;;5933903;23;20464;-90
2022/06/14 03:15:05;;;;;;;0.00;0.00;;;12.30;99.90;;;;;;6067904;23;20437;-92
2022/06/14 03:17:50;;;;;;;0.00;0.00;;;12.40;99.90;;;;;;6067713;23;20521;-91
2022/06/14 03:20:39;;;;;;;0.00;0.00;;;12.40;99.90;;;;;;6067391;23;20437;-90
2022/06/14 03:23:25;;;;;;;0.00;0.00;;;12.40;99.90;;;;;;6068853;23;20528;-90
2022/06/14 03:26:14;;;;;;;0.00;0.00;;;12.40;99.90;;;;;;6068913;23;20401;-93
2022/06/14 03:28:51;;;;;;;0.00;0.00;;;12.50;99.90;;;;;;6078544;23;20401;-91
2022/06/14 03:35:14;;;;;;;0.00;0.00;;;12.60;99.90;;;;;;6039128;23;20473;-93
2022/06/14 03:37:49;;;;;;;0.00;0.00;;;12.60;99.90;;;;;;6087628;23;20496;-91
2022/06/14 03:40:23;;;;;;;0.00;0.00;;;12.70;99.90;;;;;;6078533;23;20417;-89
2022/06/14 03:42:52;;;;;;;0.00;0.00;;;12.80;99.90;;;;;;6079264;23;20515;-90
2022/06/14 03:45:33;;;;;;;0.00;0.00;;;12.80;99.90;;;;;;6079986;23;20420;-91
2022/06/14 03:48:06;;;;;;;0.00;0.00;;;12.80;99.90;;;;;;6083199;23;20408;-91
2022/06/14 03:51:25;;;;;;;;;;;;;;;;;;;;;
2022/06/14 03:54:16;;;;;;;0.00;0.00;;;12.80;99.90;;;;;;6084319;23;20467;-92
2022/06/14 03:57:07;;;;;;;0.00;0.00;;;12.80;99.90;;;;;;6078765;23;20481;-92
2022/06/14 03:59:52;;;;;;;0.00;0.00;;;12.80;99.90;;;;;;6070116;23;20417;-91
2022/06/14 04:05:33;;;;;;;0.00;0.00;;;12.90;99.90;;;;;;6075955;23;20413;-91
2022/06/14 04:08:12;;;;;;;0.00;0.00;;;12.90;99.90;;;;;;6075649;23;20413;-91
2022/06/14 04:10:48;;;;;;;0.00;0.00;;;13.00;99.90;;;;;;6077592;23;20425;-87
2022/06/14 04:13:27;;;;;;;0.00;0.00;;;13.10;99.90;;;;;;6070170;23;20462;-91
2022/06/14 04:15:59;;;;;;;0.00;0.00;;;13.10;99.90;;;;;;6073306;23;20413;-90
2022/06/14 04:18:42;;;;;;;0.00;0.00;;;13.10;99.90;;;;;;6074150;23;20409;-90
2022/06/14 04:21:27;;;;;;;0.00;0.00;;;13.20;99.90;;;;;;6079409;23;20417;-91
2022/06/14 04:24:04;;;;;;;0.00;0.00;;;13.20;99.90;;;;;;6078138;23;20627;-91
2022/06/14 04:26:44;;;;;;;0.00;0.00;;;13.20;99.90;;;;;;6077383;23;20448;-90
2022/06/14 04:29:17;;;;;;;0.00;0.00;;;13.20;99.90;;;;;;6080051;23;20420;-88
2022/06/14 04:31:55;;;;;;;0.00;0.00;;;13.20;99.90;;;;;;6082343;23;20425;-90
2022/06/14 04:34:35;;;;;;;0.00;0.00;;;13.30;99.90;;;;;;6081329;23;20437;-90
2022/06/14 04:37:29;;;;;;;0.00;0.00;;;13.40;99.90;;;;;;6087217;23;20389;-89
2022/06/14 04:40:18;;;;;;;0.00;0.00;;;13.30;99.90;;;;;;6090655;23;20401;-90
2022/06/14 04:42:53;;;;;;;0.00;0.00;;;13.20;99.90;;;;;;6091748;23;20425;-91
2022/06/14 04:45:26;;;;;;;0.00;0.00;;;13.20;99.90;;;;;;6084344;23;20415;-90
2022/06/14 04:48:00;;;;;;;0.00;0.00;;;13.30;99.90;;;;;;6076658;23;20900;-90
2022/06/14 04:50:35;;;;;;;0.00;0.00;;;13.40;99.90;;;;;;6077026;23;20416;-90
2022/06/14 04:53:11;;;;;;;0.00;0.00;;;13.50;99.90;;;;;;6081090;23;20421;-89
2022/06/14 04:55:45;;;;;;;0.00;0.00;;;13.60;99.90;;;;;;6079567;23;20404;-89
2022/06/14 04:58:21;;;;;;;0.00;0.00;;;13.70;99.90;;;;;;6063350;23;20590;-89
2022/06/14 05:00:58;;;;;;;0.00;0.00;;;13.90;99.90;;;;;;6074131;23;20401;-90
2022/06/14 05:03:33;;;;;;;0.00;0.00;;;14.10;99.90;;;;;;6081379;23;20449;-89
2022/06/14 05:06:04;;;;;;;0.00;0.00;;;14.30;99.90;;;;;;6082925;23;20895;-87
2022/06/14 05:08:38;;;;;;;0.00;0.00;;;14.50;99.90;;;;;;6081426;23;20432;-89
2022/06/14 05:11:14;;;;;;;0.00;0.00;;;14.50;99.90;;;;;;6082140;23;20693;-89
2022/06/14 05:13:54;;;;;;;0.00;0.00;;;14.60;99.90;;;;;;6082619;23;20440;-90
2022/06/14 05:16:33;;;;;;;0.00;0.00;;;14.70;99.90;;;;;;6078897;23;20492;-89
2022/06/14 05:19:10;;;;;;;0.00;0.00;;;14.80;99.90;;;;;;6079905;23;20435;-88
2022/06/14 05:21:44;;;;;;;0.00;0.00;;;15.00;99.90;;;;;;6079636;23;20556;-90
2022/06/14 05:24:13;;;;;;;0.00;0.00;;;15.00;99.90;;;;;;6079540;23;20507;-89
2022/06/14 05:27:07;;;;;;;0.00;0.00;;;15.10;99.90;;;;;;6079283;23;20424;-91
2022/06/14 05:30:05;;;;;;;0.00;0.00;;;15.20;99.90;;;;;;6072551;23;21142;-88
2022/06/14 05:32:52;;;;;;;0.00;0.00;;;15.20;99.90;;;;;;6045061;23;20539;-90
2022/06/14 05:35:39;;;;;;;0.00;0.00;;;15.30;99.90;;;;;;6089557;23;20442;-89
2022/06/14 05:38:26;;;;;;;0.00;0.00;;;15.20;99.90;;;;;;6077488;23;20517;-92
2022/06/14 06:04:36;;;;;;;0.00;0.00;;;15.00;99.90;;;;;;5867871;24;20419;-85
2022/06/14 06:19:10;;;;;;;0.00;0.00;;;15.00;99.90;;;;;;5895130;24;20502;-84
2022/06/14 06:22:07;;;;;;;0.00;0.00;;;15.10;99.90;;;;;;5956176;23;20405;-91
2022/06/14 06:24:44;;;;;;;0.00;0.00;;;15.30;99.90;;;;;;6033042;23;20517;-91
2022/06/14 06:27:28;;;;;;;0.00;0.00;;;15.50;99.90;;;;;;6032605;23;20421;-89
2022/06/14 06:30:12;;;;;;;;;;;;;;;;;;;;;
2022/06/14 06:32:57;;;;;;;0.00;0.00;;;15.80;99.90;;;;;;5954612;24;21091;-93
2022/06/14 06:35:34;;;;;;;0.00;0.00;;;16.00;99.90;;;;;;5962882;23;20428;-90
2022/06/14 06:38:12;;;;;;;0.00;0.00;;;16.10;99.90;;;;;;5969271;23;20420;-93
2022/06/14 06:44:00;;;;;;;0.00;0.00;;;16.20;99.90;;;;;;5954367;24;20467;-90
2022/06/14 06:46:46;;;;;;;0.00;0.00;;;16.30;99.90;;;;;;5951988;24;20454;-90
2022/06/14 06:49:21;;;;;;;0.00;0.00;;;16.50;99.90;;;;;;5950762;24;20414;-91
2022/06/14 06:52:17;;;;;;;0.00;0.00;;;16.70;99.90;;;;;;5954193;24;20508;-90
2022/06/14 06:55:25;;;;;;;0.00;0.00;;;16.80;99.90;;;;;;5977044;23;20446;-90
2022/06/14 07:01:16;;;;;;;0.00;0.00;;;16.70;99.90;;;;;;5972194;24;20651;-89
2022/06/14 07:03:52;;;;;;;0.00;0.00;;;16.70;99.90;;;;;;6007871;23;20449;-91
2022/06/14 07:06:28;;;;;;;0.00;0.00;;;16.70;99.90;;;;;;6064625;23;20409;-90
2022/06/14 07:09:01;;;;;;;0.00;0.00;;;16.50;99.90;;;;;;6066652;23;20436;-91
2022/06/14 07:11:44;;;;;;;0.00;0.00;;;16.40;99.90;;;;;;6066840;23;20418;-88
2022/06/14 07:14:26;;;;;;;0.00;0.00;;;16.50;99.90;;;;;;6064681;23;20520;-90
2022/06/14 07:17:04;;;;;;;0.00;0.00;;;16.60;99.90;;;;;;6067212;23;20442;-88
2022/06/14 07:19:47;;;;;;;0.00;0.00;;;16.80;99.90;;;;;;6066936;23;20582;-91
2022/06/14 07:22:29;;;;;;;0.00;0.00;;;16.80;99.90;;;;;;6065891;23;20515;-91
2022/06/14 07:25:05;;;;;;;0.00;0.00;;;16.70;99.90;;;;;;6067161;23;20433;-89
2022/06/14 07:27:53;;;;;;;0.00;0.00;;;16.70;99.90;;;;;;6068260;23;20440;-91
2022/06/14 07:30:41;;;;;;;0.00;0.00;;;16.80;99.90;;;;;;6067852;23;20578;-90
2022/06/14 07:33:14;;;;;;;0.00;0.00;;;16.90;99.90;;;;;;6066405;23;20426;-88
2022/06/14 07:35:54;;;;;;;0.00;0.00;;;17.00;99.90;;;;;;6073040;23;20650;-89
2022/06/14 07:38:48;;;;;;;0.00;0.00;;;17.10;99.90;;;;;;6079582;23;20435;-90
2022/06/14 07:41:42;;;;;;;0.00;0.00;;;17.30;99.90;;;;;;6074751;23;20401;-91
2022/06/14 07:44:23;;;;;;;0.00;0.00;;;17.20;99.90;;;;;;6068482;23;20479;-90
2022/06/14 07:47:04;;;;;;;0.00;0.00;;;17.00;99.90;;;;;;6069058;23;20406;-90
2022/06/14 07:49:55;;;;;;;0.00;0.00;;;16.90;99.90;;;;;;6063533;23;20416;-86
2022/06/14 07:52:50;;;;;;;0.00;0.00;;;17.10;99.90;;;;;;6041188;23;20477;-86
2022/06/14 08:05:24;;;;;;;0.00;0.00;;;17.80;99.90;;;;;;6043192;23;20461;-87
2022/06/14 08:20:12;;;;;;;0.00;0.00;;;17.90;99.90;;;;;;5667643;25;20447;-87
2022/06/14 09:04:32;;;;;;;0.00;0.00;;;18.40;99.90;;;;;;6083885;23;20459;-91
2022/06/14 09:22:51;;;;;;;0.00;0.00;;;18.00;99.90;;;;;;5810929;24;20792;-87
2022/06/14 09:26:05;;;;;;;0.00;0.00;;;17.90;99.90;;;;;;5835496;24;20420;-93
2022/06/14 09:35:57;;;;;;;0.00;0.00;;;19.20;99.90;;;;;;6012129;23;20474;-94
2022/06/14 09:39:06;;;;;;;0.00;0.00;;;19.30;99.90;;;;;;5996886;23;20473;-93
2022/06/14 09:42:11;;;;;;;0.00;0.00;;;19.30;99.90;;;;;;6021124;23;20417;-93
2022/06/14 09:45:09;;;;;;;0.00;0.00;;;19.20;99.90;;;;;;6014197;23;20454;-93
2022/06/14 09:48:04;;;;;;;0.00;0.00;;;19.20;99.90;;;;;;6019385;23;20478;-94
2022/06/14 09:51:23;;;;;;;0.00;0.00;;;19.30;99.90;;;;;;5877702;24;20822;-93
2022/06/14 09:54:25;;;;;;;0.00;0.00;;;19.50;99.90;;;;;;5811889;24;20447;-93
2022/06/14 09:57:34;;;;;;;0.00;0.00;;;19.70;99.90;;;;;;5977697;24;20420;-92
2022/06/14 10:00:22;;;;;;;0.00;0.00;;;19.60;99.90;;;;;;5892886;24;20415;-92
2022/06/14 10:03:39;;;;;;;0.00;0.00;;;19.40;99.90;;;;;;5981967;24;20419;-93
2022/06/14 10:06:42;;;;;;;0.00;0.00;;;19.40;99.90;;;;;;5847029;24;20421;-92
2022/06/14 10:09:33;;;;;;;0.00;0.00;;;19.40;99.90;;;;;;5863111;24;20419;-93
2022/06/14 10:12:25;;;;;;;0.00;0.00;;;19.60;99.90;;;;;;5851024;24;20423;-90
2022/06/14 10:15:08;;;;;;;0.00;0.00;;;19.80;99.90;;;;;;5965635;23;20519;-95
2022/06/14 10:18:14;;;;;;;0.00;0.00;;;19.90;99.90;;;;;;6104966;23;20397;-94
2022/06/14 10:21:17;;;;;;;0.00;0.00;;;20.10;99.90;;;;;;6116163;23;20408;-94
2022/06/14 10:24:35;;;;;;;0.00;0.00;;;20.10;99.90;;;;;;6114780;23;20507;-93
2022/06/14 10:28:32;;;;;;;;;;;;;;;;;;;;;
2022/06/14 10:32:15;;;;;;;0.00;0.00;;;19.90;99.90;;;;;;5957965;24;20470;-92
2022/06/14 10:39:37;;;;;;;;;;;;;;;;;;;;;
2022/06/14 11:26:39;;;;;;;0.00;0.00;;;20.90;99.90;;;;;;5597696;25;20424;-87
2022/06/14 11:29:21;;;;;;;0.00;0.00;;;21.00;99.90;;;;;;5635041;25;20622;-87
2022/06/14 11:35:08;;;;;;;0.00;0.00;;;20.80;99.90;;;;;;5668902;25;20433;-87
2022/06/14 11:37:58;;;;;;;0.00;0.00;;;20.80;99.90;;;;;;5688492;25;20452;-87
2022/06/14 11:41:00;;;;;;;0.00;0.00;;;20.80;99.90;;;;;;5696679;25;20452;-87
2022/06/14 11:44:02;;;;;;;0.00;0.00;;;20.80;99.90;;;;;;5742434;24;20521;-85
2022/06/14 11:47:19;;;;;;;;;;;;;;;;;;;;;
2022/06/14 11:53:44;;;;;;;0.00;0.00;;;21.10;99.90;;;;;;5817594;23;20455;-68
2022/06/14 11:56:18;;;;;;;0.00;0.00;;;21.30;99.90;;;;;;6096857;23;20424;-69
2022/06/14 11:59:06;;;;;;;0.00;0.00;;;21.40;99.90;;;;;;6080140;23;20665;-68
2022/06/14 12:01:39;;;;;;;0.00;0.00;;;21.60;99.90;;;;;;6079998;23;20480;-67
2022/06/14 12:04:39;;;;;;;0.00;0.00;;;21.60;99.90;;;;;;6080086;23;20723;-67
2022/06/14 12:07:14;;;;;;;0.00;0.00;;;21.50;99.90;;;;;;6079847;23;20454;-68
2022/06/14 12:10:18;;;;;;;0.00;0.00;;;21.50;99.90;;;;;;6080049;23;20424;-68
2022/06/14 12:12:55;;;;;;;0.00;0.00;;;21.40;99.90;;;;;;6024867;23;20466;-68
2022/06/14 12:15:34;;;;;;;0.00;0.00;;;21.20;99.90;;;;;;6080096;23;20512;-68
2022/06/14 12:18:04;;;;;;;0.00;0.00;;;21.10;99.90;;;;;;6079257;23;20412;-70
2022/06/14 12:20:38;;;;;;;0.00;0.00;;;21.00;99.90;;;;;;6079265;23;20472;-69
2022/06/14 12:23:11;;;;;;;0.00;0.00;;;21.00;99.90;;;;;;6079180;23;20385;-67
2022/06/14 12:28:37;;;;;;;0.00;0.00;;;21.10;99.90;;;;;;6079034;23;20412;-67
2022/06/14 12:31:15;;;;;;;0.00;0.00;;;21.10;99.90;;;;;;6079016;23;20483;-67
2022/06/14 12:33:47;;;;;;;0.00;0.00;;;21.20;99.90;;;;;;6079157;23;20382;-67
2022/06/14 12:36:26;;;;;;;0.00;0.00;;;21.30;99.90;;;;;;6078015;23;20848;-69
2022/06/14 12:38:57;;;;;;;0.00;0.00;;;21.30;99.90;;;;;;6078985;23;20404;-67
2022/06/14 12:41:31;;;;;;;0.00;0.00;;;21.30;99.90;;;;;;6078973;23;20419;-67
2022/06/14 12:44:16;;;;;;;0.00;0.00;;;21.30;99.90;;;;;;6079729;23;20420;-67
2022/06/14 12:46:48;;;;;;;0.00;0.00;;;21.40;99.90;;;;;;6079188;23;20624;-67
2022/06/14 12:49:20;;;;;;;0.00;0.00;;;21.40;99.90;;;;;;6080454;23;20414;-68
2022/06/14 12:51:53;;;;;;;0.00;0.00;;;21.30;99.90;;;;;;6081110;23;20404;-66
2022/06/14 12:54:34;;;;;;;0.00;0.00;;;21.20;99.90;;;;;;6080673;23;20416;-66
2022/06/14 12:57:09;;;;;;;0.00;0.00;;;21.20;99.90;;;;;;6078074;23;20996;-66
2022/06/14 12:59:45;;;;;;;0.00;0.00;;;21.10;99.90;;;;;;6078886;23;20380;-66
2022/06/14 13:02:19;;;;;;;0.00;0.00;;;20.90;99.90;;;;;;6077953;23;20395;-67
2022/06/14 13:04:51;;;;;;;0.00;0.00;;;20.80;99.90;;;;;;6078479;23;20715;-66
2022/06/14 13:07:33;;;;;;;0.00;0.00;;;20.80;99.90;;;;;;6078554;23;20420;-69
2022/06/14 13:10:15;;;;;;;0.00;0.00;;;20.80;99.90;;;;;;6078028;23;20965;-67
2022/06/14 13:13:00;;;;;;;0.00;0.00;;;20.70;99.90;;;;;;6077906;23;20461;-67
2022/06/14 13:15:36;;;;;;;0.00;0.00;;;20.70;99.90;;;;;;6079988;23;20385;-67
2022/06/14 13:18:25;;;;;;;0.00;0.00;;;20.70;99.90;;;;;;6079255;23;20772;-67
2022/06/14 13:20:58;;;;;;;0.00;0.00;;;20.80;99.90;;;;;;6078763;23;20461;-67
2022/06/14 13:23:37;;;;;;;0.00;0.00;;;20.90;99.90;;;;;;6077839;23;20428;-67
2022/06/14 13:26:34;;;;;;;0.00;0.00;;;20.90;99.90;;;;;;6078096;23;20443;-67
2022/06/14 13:29:23;;;;;;;0.00;0.00;;;20.70;99.90;;;;;;6078027;23;20792;-67
2022/06/14 13:32:04;;;;;;;0.00;0.00;;;20.60;99.90;;;;;;6078195;23;20834;-68
2022/06/14 13:34:46;;;;;;;0.00;0.00;;;20.60;99.90;;;;;;6077550;23;20866;-68
2022/06/14 13:37:29;;;;;;;0.00;0.00;;;20.70;99.90;;;;;;6077793;23;20769;-67
2022/06/14 13:40:04;;;;;;;0.00;0.00;;;20.70;99.90;;;;;;6077442;23;20395;-68
2022/06/14 13:42:38;;;;;;;0.00;0.00;;;20.70;99.90;;;;;;6077827;23;20394;-69
2022/06/14 13:45:12;;;;;;;0.00;0.00;;;20.80;99.90;;;;;;6077455;23;20746;-68
2022/06/14 13:47:42;;;;;;;0.00;0.00;;;20.80;99.90;;;;;;6077858;23;20385;-68
2022/06/14 13:50:19;;;;;;;0.00;0.00;;;20.70;99.90;;;;;;6077505;23;20447;-69
2022/06/14 13:52:51;;;;;;;0.00;0.00;;;20.70;99.90;;;;;;6077182;23;20435;-69
2022/06/14 13:55:25;;;;;;;0.00;0.00;;;20.80;99.90;;;;;;6077389;23;20391;-68
2022/06/14 13:58:00;;;;;;;0.00;0.00;;;20.80;99.90;;;;;;6077741;23;20441;-68
2022/06/14 14:00:36;;;;;;;0.00;0.00;;;20.90;99.90;;;;;;6077714;23;20785;-67
2022/06/14 14:03:24;;;;;;;0.00;0.00;;;20.90;99.90;;;;;;6077155;23;20416;-68
2022/06/14 14:06:01;;;;;;;0.00;0.00;;;20.90;99.90;;;;;;6077125;23;20440;-68
2022/06/14 14:08:43;;;;;;;0.00;0.00;;;21.00;99.90;;;;;;6077622;23;21036;-68
2022/06/14 14:11:21;;;;;;;0.00;0.00;;;21.10;99.90;;;;;;6076876;23;20790;-68
2022/06/14 14:13:55;;;;;;;0.00;0.00;;;21.10;99.90;;;;;;6077943;23;20380;-68
2022/06/14 14:16:28;;;;;;;0.00;0.00;;;21.10;99.90;;;;;;6076859;23;20510;-68
2022/06/14 14:19:04;;;;;;;0.00;0.00;;;21.00;99.90;;;;;;6077781;23;20737;-68
2022/06/14 14:21:38;;;;;;;0.00;0.00;;;20.90;99.90;;;;;;6077379;23;20424;-68
2022/06/14 14:24:24;;;;;;;0.00;0.00;;;20.90;99.90;;;;;;6077999;23;20385;-68
2022/06/14 14:27:00;;;;;;;0.00;0.00;;;20.90;99.90;;;;;;6077003;23;20579;-68
2022/06/14 14:29:33;;;;;;;0.00;0.00;;;21.00;99.90;;;;;;6077456;23;20416;-68
2022/06/14 14:32:06;;;;;;;0.00;0.00;;;21.00;99.90;;;;;;6077220;23;20508;-68
2022/06/14 14:34:43;;;;;;;0.00;0.00;;;21.10;99.90;;;;;;6079484;23;20583;-68
2022/06/14 14:37:15;;;;;;;0.00;0.00;;;21.10;99.90;;;;;;6078532;23;20423;-68
2022/06/14 14:40:05;;;;;;;0.00;0.00;;;21.20;99.90;;;;;;6078931;23;20389;-68
2022/06/14 14:42:50;;;;;;;0.00;0.00;;;21.40;99.90;;;;;;6078027;23;20512;-68
2022/06/14 14:45:21;;;;;;;0.00;0.00;;;21.40;99.90;;;;;;6079341;23;20385;-68
2022/06/14 14:47:53;;;;;;;0.00;0.00;;;21.50;99.90;;;;;;6078258;23;20400;-68
2022/06/14 14:50:31;;;;;;;0.00;0.00;;;21.50;99.90;;;;;;6078306;23;20386;-68
2022/06/14 14:53:05;;;;;;;0.00;0.00;;;21.50;99.90;;;;;;6076065;23;20515;-69
2022/06/14 14:55:38;;;;;;;0.00;0.00;;;21.60;99.90;;;;;;6077469;23;20444;-69
2022/06/14 14:58:16;;;;;;;0.00;0.00;;;21.40;99.90;;;;;;6078196;23;20409;-69
2022/06/14 15:06:36;;;;;;;0.00;0.00;;;21.00;99.90;;;;;;6077692;23;20531;-69
2022/06/14 15:09:11;;;;;;;0.00;0.00;;;20.90;99.90;;;;;;6077873;23;20427;-68
2022/06/14 15:11:46;;;;;;;0.00;0.00;;;20.70;99.90;;;;;;6077175;23;20408;-71
2022/06/14 15:14:18;;;;;;;0.00;0.00;;;20.80;99.90;;;;;;6078392;23;20443;-69
2022/06/14 15:19:53;;;;;;;0.00;0.00;;;20.90;99.90;;;;;;6078801;23;20428;-70
2022/06/14 15:19:56;;;;;;;0.00;0.00;;;20.90;99.90;;;;;;6080606;23;20436;-70
2022/06/14 15:22:30;;;;;;;0.00;0.00;;;20.90;99.90;;;;;;6078860;23;20408;-70
2022/06/14 15:25:05;;;;;;;0.00;0.00;;;20.90;99.90;;;;;;6078475;23;20438;-70
2022/06/14 15:27:38;;;;;;;0.00;0.00;;;21.00;99.90;;;;;;6079244;23;20651;-70
2022/06/14 15:30:07;;;;;;;0.00;0.00;;;21.10;99.90;;;;;;6078807;23;20404;-70
2022/06/14 15:32:36;;;;;;;0.00;0.00;;;21.20;99.90;;;;;;6078813;23;20500;-70
2022/06/14 15:35:19;;;;;;;0.00;0.00;;;21.20;99.90;;;;;;6080696;23;20446;-70
2022/06/14 15:38:20;;;;;;;0.00;0.00;;;21.30;99.90;;;;;;6080364;23;20476;-70
2022/06/14 15:41:02;;;;;;;0.00;0.00;;;21.30;99.90;;;;;;6079192;23;20756;-70
2022/06/14 15:43:31;;;;;;;0.00;0.00;;;21.50;99.90;;;;;;6078307;23;20412;-70
2022/06/14 15:45:59;;;;;;;0.00;0.00;;;21.60;99.90;;;;;;6078552;23;20786;-69
2022/06/14 15:48:30;;;;;;;0.00;0.00;;;21.60;99.90;;;;;;6078761;23;20793;-69
2022/06/14 15:51:04;;;;;;;0.00;0.00;;;21.60;99.90;;;;;;6078399;23;20523;-70
2022/06/14 15:53:44;;;;;;;0.00;0.00;;;21.40;99.90;;;;;;6077480;23;20980;-69
2022/06/14 15:56:21;;;;;;;0.00;0.00;;;21.30;99.90;;;;;;6077917;23;20475;-69
2022/06/14 15:58:52;;;;;;;0.00;0.00;;;21.10;99.90;;;;;;6078772;23;20653;-69
2022/06/14 16:01:26;;;;;;;0.00;0.00;;;20.90;99.90;;;;;;6079147;23;20829;-69
2022/06/14 16:03:59;;;;;;;0.00;0.00;;;20.90;99.90;;;;;;6079332;23;20427;-67
2022/06/14 16:06:34;;;;;;;0.00;0.00;;;20.90;99.90;;;;;;6078776;23;20526;-69
2022/06/14 16:09:06;;;;;;;0.00;0.00;;;20.80;99.90;;;;;;6079878;23;20945;-70
2022/06/14 16:11:46;;;;;;;0.00;0.00;;;20.90;99.90;;;;;;6078374;23;20955;-69
2022/06/14 16:14:18;;;;;;;0.00;0.00;;;20.90;99.90;;;;;;6077407;23;20436;-70
2022/06/14 16:17:03;;;;;;;0.00;0.00;;;20.90;99.90;;;;;;6077438;23;20499;-69
2022/06/14 16:19:35;;;;;;;0.00;0.00;;;20.90;99.90;;;;;;6078855;23;20778;-69
2022/06/14 16:22:10;;;;;;;0.00;0.00;;;20.90;99.90;;;;;;6078144;23;20389;-69
2022/06/14 16:24:43;;;;;;;0.00;0.00;;;20.90;99.90;;;;;;6077289;23;20422;-69
2022/06/14 16:27:40;;;;;;;0.00;0.00;;;20.80;99.90;;;;;;6077883;23;20602;-69
2022/06/14 16:30:20;;;;;;;0.00;0.00;;;20.70;99.90;;;;;;6077876;23;20507;-69
2022/06/14 16:33:00;;;;;;;0.00;0.00;;;20.60;99.90;;;;;;6077825;23;20617;-69
2022/06/14 16:35:37;;;;;;;0.00;0.00;;;20.50;99.90;;;;;;6078243;23;20395;-69
2022/06/14 16:38:21;;;;;;;0.00;0.00;;;20.60;99.90;;;;;;6078339;23;20419;-69
2022/06/14 16:40:57;;;;;;;0.00;0.00;;;20.60;99.90;;;;;;6078461;23;20396;-69
2022/06/14 16:43:33;;;;;;;0.00;0.00;;;20.60;99.90;;;;;;6077483;23;20944;-69
2022/06/14 16:46:07;;;;;;;0.00;0.00;;;20.60;99.90;;;;;;6078835;23;20960;-69
2022/06/14 16:48:47;;;;;;;0.00;0.00;;;20.60;99.90;;;;;;6078042;23;20670;-72
2022/06/14 16:51:24;;;;;;;0.00;0.00;;;20.50;99.90;;;;;;6078499;23;21054;-71
2022/06/14 16:54:01;;;;;;;0.00;0.00;;;20.40;99.90;;;;;;6078775;23;20412;-71
2022/06/14 16:56:34;;;;;;;0.00;0.00;;;20.40;99.90;;;;;;6078145;23;20444;-71
2022/06/14 16:59:14;;;;;;;0.00;0.00;;;20.40;99.90;;;;;;6078609;23;20899;-73
2022/06/14 17:01:49;;;;;;;0.00;0.00;;;20.40;99.90;;;;;;6078051;23;20384;-73
2022/06/14 17:04:28;;;;;;;0.00;0.00;;;20.30;99.90;;;;;;6080007;23;20463;-70
2022/06/14 17:07:06;;;;;;;0.00;0.00;;;20.30;99.90;;;;;;6079913;23;20448;-69
2022/06/14 17:10:06;;;;;;;0.00;0.00;;;20.20;99.90;;;;;;6078717;23;20436;-71
2022/06/14 17:12:46;;;;;;;0.00;0.00;;;20.20;99.90;;;;;;6049321;23;20408;-69
2022/06/14 17:15:23;;;;;;;0.00;0.00;;;20.30;99.90;;;;;;6079673;23;20684;-69
2022/06/14 17:17:55;;;;;;;0.00;0.00;;;20.60;99.90;;;;;;6079661;23;21028;-69
2022/06/14 17:20:30;;;;;;;0.00;0.00;;;20.70;99.90;;;;;;6078935;23;20431;-74
2022/06/14 17:23:07;;;;;;;0.00;0.00;;;20.50;99.90;;;;;;6084820;23;20415;-77
2022/06/14 17:31:30;;;;;;;0.00;0.00;;;19.80;99.90;;;;;;5970333;23;20657;-73
2022/06/14 17:34:08;;;;;;;0.00;0.00;;;19.60;99.90;;;;;;6079052;23;20492;-71
2022/06/14 17:36:42;;;;;;;0.00;0.00;;;19.50;99.90;;;;;;6078310;23;20438;-73
2022/06/14 17:39:14;;;;;;;0.00;0.00;;;19.40;99.90;;;;;;6078282;23;20653;-73
2022/06/14 17:41:46;;;;;;;0.00;0.00;;;19.30;99.90;;;;;;6077129;23;20391;-73
2022/06/14 17:44:18;;;;;;;0.00;0.00;;;19.20;99.90;;;;;;6078570;23;20381;-72
2022/06/14 17:46:49;;;;;;;0.00;0.00;;;19.20;99.90;;;;;;6077075;23;20425;-73
2022/06/14 17:49:27;;;;;;;0.00;0.00;;;19.20;99.90;;;;;;6078460;23;20617;-72
2022/06/14 17:52:02;;;;;;;0.00;0.00;;;19.10;99.90;;;;;;6079858;23;20389;-73
2022/06/14 17:54:39;;;;;;;0.00;0.00;;;19.00;99.90;;;;;;6078551;23;20412;-73
2022/06/14 17:57:18;;;;;;;0.00;0.00;;;19.10;99.90;;;;;;6081170;23;20742;-72
2022/06/14 18:00:05;;;;;;;0.00;0.00;;;19.00;99.90;;;;;;6077371;23;20593;-72
2022/06/14 18:02:45;;;;;;;0.00;0.00;;;19.00;99.90;;;;;;6077086;23;20442;-72
2022/06/14 18:05:48;;;;;;;0.00;0.00;;;19.00;99.90;;;;;;6079530;23;20388;-72
2022/06/14 18:08:22;;;;;;;0.00;0.00;;;18.90;99.90;;;;;;6077792;23;20511;-72